Time;durP1;ratioP1;P1;durP2;ratioP2;P2;SDS_P1;SDS_P2;PMS_P1;PMS_P2;Temp;Humidity;BMP_temperature;BMP_pressure;BME280_temperature;BME280_humidity;BME280_pressure;Samples;Min_cycle;Max_cycle;Signal;HPM_P1;HPM_P2
2023/08/30 00:01:06;;;;;;;13.80;7.00;;;;;;;25.41;52.43;100118.78;107273;1257;97800;-67
2023/08/30 00:03:36;;;;;;;16.60;7.60;;;;;;;25.36;52.14;100123.80;107322;1256;111348;-65
2023/08/30 00:06:06;;;;;;;23.90;7.70;;;;;;;25.31;52.08;100121.05;107231;1263;111482;-66
2023/08/30 00:08:34;;;;;;;10.10;7.30;;;;;;;25.27;52.97;100119.45;107264;1257;108027;-66
2023/08/30 00:11:04;;;;;;;15.40;7.60;;;;;;;25.21;52.88;100117.63;107339;1259;97765;-66
2023/08/30 00:13:33;;;;;;;26.20;8.30;;;;;;;25.15;53.50;100119.52;107289;1258;97721;-65
2023/08/30 00:16:02;;;;;;;12.00;6.60;;;;;;;25.11;53.48;100123.79;107305;1257;111003;-65
2023/08/30 00:18:31;;;;;;;9.90;7.30;;;;;;;25.06;53.77;100122.82;107369;1257;107552;-65
2023/08/30 00:20:59;;;;;;;11.00;6.80;;;;;;;25.01;53.54;100121.04;107310;1255;108298;-67
2023/08/30 00:23:27;;;;;;;17.30;7.60;;;;;;;24.98;53.62;100120.42;107264;1257;97836;-65
2023/08/30 00:25:55;;;;;;;25.10;7.90;;;;;;;24.96;53.92;100122.98;107295;1259;97726;-68
2023/08/30 00:28:23;;;;;;;9.60;6.70;;;;;;;24.91;54.45;100124.00;107197;1258;111487;-67
2023/08/30 00:30:55;;;;;;;17.10;7.60;;;;;;;24.86;54.75;100127.76;107387;1257;109734;-66
2023/08/30 00:33:24;;;;;;;13.70;7.00;;;;;;;24.82;54.64;100124.06;107247;1257;108653;-67
2023/08/30 00:35:58;;;;;;;17.40;7.80;;;;;;;24.81;54.70;100127.08;107257;1256;97820;-65
2023/08/30 00:38:27;;;;;;;10.30;7.50;;;;;;;24.78;55.24;100120.95;107323;1257;97944;-65
2023/08/30 00:40:56;;;;;;;17.60;6.80;;;;;;;24.76;54.95;100125.70;107327;1257;112213;-67
2023/08/30 00:43:25;;;;;;;13.10;7.40;;;;;;;24.73;55.01;100126.52;107285;1260;110865;-68
2023/08/30 00:45:56;;;;;;;12.40;7.50;;;;;;;24.70;55.02;100123.61;107313;1258;108625;-66
2023/08/30 00:48:24;;;;;;;18.40;7.20;;;;;;;24.66;55.08;100119.80;107314;1257;97838;-67
2023/08/30 00:50:53;;;;;;;14.10;6.90;;;;;;;24.63;55.39;100115.42;107239;1257;98511;-66
2023/08/30 00:53:21;;;;;;;10.30;6.90;;;;;;;24.60;54.96;100114.30;107172;1257;110819;-67
2023/08/30 00:55:50;;;;;;;16.90;7.20;;;;;;;24.58;54.78;100112.58;107329;1257;109864;-67
2023/08/30 00:58:18;;;;;;;10.60;7.10;;;;;;;24.57;54.91;100112.71;107199;1262;108572;-67
2023/08/30 01:00:47;;;;;;;14.80;6.80;;;;;;;24.56;54.85;100113.30;107320;1259;97937;-68
2023/08/30 01:03:16;;;;;;;13.60;7.30;;;;;;;24.54;55.12;100112.39;107330;1258;98366;-66
2023/08/30 01:05:45;;;;;;;13.10;7.00;;;;;;;24.52;54.83;100115.64;107292;1258;112090;-67
2023/08/30 01:08:14;;;;;;;12.90;7.70;;;;;;;24.50;55.57;100110.45;107267;1259;109989;-66
2023/08/30 01:11:39;;;;;;;20.00;7.10;;;;;;;24.49;55.46;100109.88;107274;1256;107655;-66
2023/08/30 01:14:13;;;;;;;11.70;7.40;;;;;;;24.49;55.98;100105.52;106679;1264;97841;-65
2023/08/30 01:16:42;;;;;;;13.80;7.30;;;;;;;24.49;56.00;100105.31;106707;1263;97782;-67
2023/08/30 01:19:29;;;;;;;12.60;7.10;;;;;;;24.48;55.81;100103.98;107107;1257;111635;-66
2023/08/30 01:22:20;;;;;;;12.90;6.90;;;;;;;24.47;55.86;100107.91;107323;1257;110161;-67
2023/08/30 01:25:17;;;;;;;16.80;7.30;;;;;;;24.42;56.10;100110.39;107282;1257;107625;-67
2023/08/30 01:27:48;;;;;;;15.70;7.10;;;;;;;24.34;56.22;100116.63;107217;1258;97922;-67
2023/08/30 01:30:18;;;;;;;14.40;7.20;;;;;;;24.28;56.24;100118.86;107303;1258;98376;-66
2023/08/30 01:32:48;;;;;;;16.10;7.70;;;;;;;24.22;56.03;100118.35;107213;1257;112335;-67
2023/08/30 01:35:19;;;;;;;14.40;7.30;;;;;;;24.20;55.96;100120.52;107260;1257;109831;-68
2023/08/30 01:37:50;;;;;;;13.40;7.40;;;;;;;24.21;57.42;100120.95;107307;1260;108399;-67
2023/08/30 01:40:20;;;;;;;11.90;7.20;;;;;;;24.17;57.11;100120.95;107348;1257;97918;-65
2023/08/30 01:42:49;;;;;;;8.80;6.90;;;;;;;24.14;57.23;100118.58;107226;1257;97863;-67
2023/08/30 01:45:20;;;;;;;13.00;7.50;;;;;;;24.11;57.59;100118.89;107307;1258;111266;-67
2023/08/30 01:47:51;;;;;;;13.60;6.90;;;;;;;24.06;57.23;100114.08;107166;1257;110190;-67
2023/08/30 01:50:21;;;;;;;16.00;7.40;;;;;;;24.03;58.08;100121.19;107280;1258;108772;-67
2023/08/30 01:52:51;;;;;;;15.10;7.50;;;;;;;23.97;57.98;100120.42;107235;1260;98516;-67
2023/08/30 01:55:22;;;;;;;12.80;7.00;;;;;;;23.94;58.07;100118.56;107228;1261;98015;-65
2023/08/30 01:57:50;;;;;;;13.60;6.80;;;;;;;23.90;57.72;100121.71;107337;1260;111204;-66
2023/08/30 02:00:18;;;;;;;15.90;7.50;;;;;;;23.90;57.90;100126.27;107386;1256;109350;-67
2023/08/30 02:02:48;;;;;;;12.20;6.70;;;;;;;23.91;58.06;100124.77;107388;1259;107754;-67
2023/08/30 02:05:16;;;;;;;13.10;6.90;;;;;;;23.93;58.83;100119.80;107387;1260;97873;-67
2023/08/30 02:08:01;;;;;;;16.90;7.20;;;;;;;23.92;58.56;100128.08;107312;1260;97842;-65
2023/08/30 02:10:35;;;;;;;22.40;7.00;;;;;;;23.92;59.02;100125.16;107428;1256;111773;-66
2023/08/30 02:13:06;;;;;;;10.80;6.80;;;;;;;23.91;59.17;100126.64;107364;1260;109678;-66
2023/08/30 02:15:36;;;;;;;16.60;7.00;;;;;;;23.88;58.67;100128.98;107377;1260;107661;-66
2023/08/30 02:18:05;;;;;;;17.30;7.50;;;;;;;23.86;58.49;100132.06;107393;1257;97826;-67
2023/08/30 02:20:34;;;;;;;12.20;7.60;;;;;;;23.83;58.20;100131.98;107254;1254;98024;-66
2023/08/30 02:23:03;;;;;;;17.10;7.50;;;;;;;23.85;58.91;100123.63;107273;1254;111990;-66
2023/08/30 02:25:42;;;;;;;12.20;6.90;;;;;;;23.85;58.54;100128.19;107349;1256;109087;-67
2023/08/30 02:28:10;;;;;;;13.50;7.50;;;;;;;23.85;58.97;100127.09;107328;1258;108306;-65
2023/08/30 02:30:40;;;;;;;16.70;7.40;;;;;;;23.84;59.47;100123.67;107352;1257;98125;-66
2023/08/30 02:33:08;;;;;;;20.30;7.90;;;;;;;23.83;59.29;100123.79;107349;1257;97912;-66
2023/08/30 02:35:38;;;;;;;16.00;7.10;;;;;;;23.81;58.80;100129.95;107398;1260;110669;-66
2023/08/30 02:38:07;;;;;;;13.20;8.20;;;;;;;23.81;59.21;100127.83;107241;1257;110285;-66
2023/08/30 02:40:36;;;;;;;15.20;7.90;;;;;;;23.80;59.40;100129.67;107237;1260;107213;-66
2023/08/30 02:43:05;;;;;;;11.00;7.60;;;;;;;23.77;59.52;100135.21;107363;1257;97847;-66
2023/08/30 02:45:33;;;;;;;17.20;7.60;;;;;;;23.75;59.19;100137.80;107364;1260;98336;-66
2023/08/30 02:48:02;;;;;;;12.60;7.20;;;;;;;23.74;59.19;100132.61;107264;1257;111980;-67
2023/08/30 02:50:31;;;;;;;13.50;7.40;;;;;;;23.74;59.27;100129.83;107383;1259;109329;-67
2023/08/30 02:52:59;;;;;;;18.50;7.90;;;;;;;23.75;59.34;100135.73;107372;1254;108591;-67
2023/08/30 02:55:27;;;;;;;21.40;8.00;;;;;;;23.73;59.18;100128.69;107360;1258;97717;-67
2023/08/30 02:57:55;;;;;;;12.50;7.90;;;;;;;23.72;59.26;100136.91;107424;1254;98482;-67
2023/08/30 03:00:23;;;;;;;21.70;8.00;;;;;;;23.73;59.22;100133.14;107237;1258;112307;-67
2023/08/30 03:02:52;;;;;;;18.10;7.80;;;;;;;23.74;59.32;100134.59;107338;1257;109871;-64
2023/08/30 03:05:21;;;;;;;21.50;7.60;;;;;;;23.78;59.13;100137.36;107240;1257;107996;-68
2023/08/30 03:07:51;;;;;;;20.30;7.90;;;;;;;23.81;58.98;100142.38;107347;1260;98354;-65
2023/08/30 03:10:20;;;;;;;18.80;7.30;;;;;;;23.83;59.26;100135.44;107247;1260;97769;-67
2023/08/30 03:12:48;;;;;;;20.40;7.00;;;;;;;23.82;59.10;100141.37;107349;1257;111386;-66
2023/08/30 03:15:17;;;;;;;18.00;7.20;;;;;;;23.81;59.09;100137.98;107363;1254;110740;-67
2023/08/30 03:17:45;;;;;;;17.20;7.80;;;;;;;23.80;59.01;100147.20;107247;1260;108639;-66
2023/08/30 03:20:14;;;;;;;16.60;7.10;;;;;;;23.82;59.02;100143.06;107338;1255;97839;-69
2023/08/30 03:22:42;;;;;;;14.60;7.40;;;;;;;23.83;58.91;100144.69;107378;1254;98488;-67
2023/08/30 03:25:11;;;;;;;20.90;8.50;;;;;;;23.84;58.74;100148.43;107269;1257;112191;-67
2023/08/30 03:27:39;;;;;;;29.70;7.30;;;;;;;23.83;58.72;100147.49;107377;1254;108699;-67
2023/08/30 03:30:09;;;;;;;17.30;7.70;;;;;;;23.82;58.91;100147.34;107343;1254;108570;-66
2023/08/30 03:32:38;;;;;;;28.60;7.70;;;;;;;23.81;58.78;100147.27;107386;1254;97928;-65
2023/08/30 03:35:08;;;;;;;17.70;8.00;;;;;;;23.79;59.46;100145.80;107192;1257;97886;-67
2023/08/30 03:37:36;;;;;;;18.20;7.60;;;;;;;23.74;59.36;100155.91;107442;1254;110860;-66
2023/08/30 03:40:06;;;;;;;19.70;8.20;;;;;;;23.72;59.52;100150.34;107391;1254;109903;-66
2023/08/30 03:42:34;;;;;;;18.10;7.80;;;;;;;23.69;59.98;100153.66;107401;1257;106965;-66
2023/08/30 03:45:05;;;;;;;33.70;8.40;;;;;;;23.67;60.34;100153.44;107359;1257;97838;-66
2023/08/30 03:47:33;;;;;;;25.00;8.50;;;;;;;23.66;60.52;100153.79;107409;1257;98363;-67
2023/08/30 03:50:02;;;;;;;25.30;8.10;;;;;;;23.64;60.41;100159.45;107283;1254;111718;-66
2023/08/30 03:52:30;;;;;;;23.20;8.10;;;;;;;23.62;60.71;100163.19;107385;1257;110738;-66
2023/08/30 03:54:58;;;;;;;19.40;8.90;;;;;;;23.57;60.88;100168.01;107239;1258;107904;-66
2023/08/30 03:57:26;;;;;;;21.00;7.90;;;;;;;23.54;60.88;100176.13;107295;1260;97960;-67
2023/08/30 03:59:56;;;;;;;17.80;7.70;;;;;;;23.49;61.47;100176.52;107379;1254;97720;-66
2023/08/30 04:02:24;;;;;;;19.40;7.50;;;;;;;23.45;61.63;100187.10;107372;1257;110685;-65
2023/08/30 04:04:52;;;;;;;17.30;8.10;;;;;;;23.50;61.38;100179.74;107358;1257;109661;-67
2023/08/30 04:07:21;;;;;;;26.30;11.60;;;;;;;23.56;61.10;100184.50;107337;1254;108398;-65
2023/08/30 04:09:50;;;;;;;16.60;8.50;;;;;;;23.62;60.98;100184.48;107214;1255;97898;-66
2023/08/30 04:12:18;;;;;;;19.60;8.00;;;;;;;23.68;60.62;100182.95;107374;1254;97840;-66
2023/08/30 04:14:46;;;;;;;16.00;7.50;;;;;;;23.75;60.46;100184.55;107335;1257;112063;-66
2023/08/30 04:17:14;;;;;;;22.30;8.70;;;;;;;23.81;60.16;100186.05;107339;1257;109105;-66
2023/08/30 04:19:42;;;;;;;25.90;8.40;;;;;;;23.87;59.98;100194.77;107346;1257;108237;-65
2023/08/30 04:22:11;;;;;;;16.20;7.10;;;;;;;23.91;59.97;100191.08;107327;1257;97853;-66
2023/08/30 04:24:39;;;;;;;16.00;7.60;;;;;;;23.97;59.73;100199.61;107234;1260;98711;-66
2023/08/30 04:27:07;;;;;;;18.30;7.80;;;;;;;24.01;59.69;100202.64;107360;1257;111012;-66
2023/08/30 04:29:35;;;;;;;30.70;8.70;;;;;;;24.05;59.57;100202.02;107260;1257;108527;-66
2023/08/30 04:32:04;;;;;;;25.70;8.40;;;;;;;24.10;59.39;100203.98;107362;1254;108467;-65
2023/08/30 04:34:32;;;;;;;16.60;8.10;;;;;;;24.15;59.19;100204.66;107391;1256;97818;-66
2023/08/30 04:37:01;;;;;;;14.20;8.10;;;;;;;24.19;59.04;100208.48;107355;1254;97720;-66
2023/08/30 04:39:29;;;;;;;21.60;7.90;;;;;;;24.22;59.02;100208.77;107354;1256;111764;-66
2023/08/30 04:41:58;;;;;;;20.40;8.60;;;;;;;24.26;59.15;100211.88;107348;1254;109680;-66
2023/08/30 04:44:27;;;;;;;21.80;7.90;;;;;;;24.31;59.05;100217.53;107376;1255;107964;-66
2023/08/30 04:46:56;;;;;;;21.80;7.70;;;;;;;24.35;59.04;100216.79;107425;1254;97911;-63
2023/08/30 04:49:25;;;;;;;18.20;8.70;;;;;;;24.36;59.07;100219.64;107244;1260;98381;-66
2023/08/30 04:51:53;;;;;;;26.80;8.80;;;;;;;24.42;58.98;100221.06;107235;1254;112434;-66
2023/08/30 04:54:21;;;;;;;31.60;9.10;;;;;;;24.46;58.83;100220.16;107428;1254;108641;-65
2023/08/30 04:56:51;;;;;;;20.30;8.10;;;;;;;24.49;58.95;100227.81;107381;1254;108692;-66
2023/08/30 04:59:19;;;;;;;19.50;8.30;;;;;;;24.55;58.76;100218.39;107348;1253;97869;-66
2023/08/30 05:01:49;;;;;;;30.30;8.50;;;;;;;24.63;59.00;100221.95;107413;1254;97778;-66
2023/08/30 05:04:18;;;;;;;17.90;8.30;;;;;;;24.69;58.70;100223.88;107379;1254;111808;-64
2023/08/30 05:06:47;;;;;;;27.00;9.50;;;;;;;24.76;58.63;100227.30;107300;1257;109088;-66
2023/08/30 05:09:16;;;;;;;25.00;8.10;;;;;;;24.81;58.44;100232.30;107394;1254;108336;-65
2023/08/30 05:11:45;;;;;;;31.20;9.10;;;;;;;24.86;58.46;100228.27;107371;1257;97822;-66
2023/08/30 05:14:13;;;;;;;26.60;9.90;;;;;;;24.92;58.44;100226.78;107240;1257;99492;-67
2023/08/30 05:16:41;;;;;;;18.50;8.40;;;;;;;24.95;58.30;100225.74;107380;1254;111136;-65
2023/08/30 05:19:10;;;;;;;21.10;8.60;;;;;;;24.96;58.33;100222.76;107357;1254;109535;-64
2023/08/30 05:21:38;;;;;;;16.20;8.40;;;;;;;24.96;58.47;100219.29;107152;1254;107206;-65
2023/08/30 05:24:07;;;;;;;27.30;9.40;;;;;;;24.97;58.26;100223.36;107347;1254;97836;-64
2023/08/30 05:26:36;;;;;;;17.30;8.70;;;;;;;24.99;58.36;100220.77;107382;1254;97964;-65
2023/08/30 05:29:04;;;;;;;31.30;8.10;;;;;;;25.03;58.31;100218.08;107372;1257;111983;-68
2023/08/30 05:31:33;;;;;;;23.90;8.40;;;;;;;25.08;58.26;100216.09;107378;1254;108342;-65
2023/08/30 05:34:23;;;;;;;22.30;9.20;;;;;;;25.15;58.24;100215.73;107189;1254;107679;-64
2023/08/30 05:37:15;;;;;;;32.20;8.70;;;;;;;25.24;58.65;100215.02;107043;1254;97864;-67
2023/08/30 05:39:58;;;;;;;20.20;9.40;;;;;;;25.32;58.39;100211.14;107290;1258;97826;-65
2023/08/30 05:42:26;;;;;;;33.40;9.30;;;;;;;25.41;58.28;100212.35;107387;1254;111211;-64
2023/08/30 05:44:56;;;;;;;23.20;9.10;;;;;;;25.51;58.32;100207.08;107394;1254;108577;-68
2023/08/30 05:47:25;;;;;;;30.10;9.90;;;;;;;25.62;58.15;100211.67;107350;1257;108625;-64
2023/08/30 05:49:54;;;;;;;38.00;9.60;;;;;;;25.72;58.17;100209.95;107287;1260;97829;-66
2023/08/30 05:52:22;;;;;;;20.60;9.00;;;;;;;25.79;58.51;100208.14;107301;1254;97992;-67
2023/08/30 05:54:51;;;;;;;28.30;8.70;;;;;;;25.88;58.41;100206.17;107343;1257;112381;-66
2023/08/30 05:57:19;;;;;;;17.20;8.20;;;;;;;26.01;58.23;100205.05;107229;1254;110845;-67
2023/08/30 05:59:47;;;;;;;17.20;8.00;;;;;;;26.13;58.08;100203.15;107206;1257;108219;-66
2023/08/30 06:02:15;;;;;;;30.30;9.30;;;;;;;26.23;57.82;100197.33;107363;1254;97822;-66
2023/08/30 06:04:43;;;;;;;19.50;8.20;;;;;;;26.36;57.76;100199.55;107352;1257;98333;-65
2023/08/30 06:07:12;;;;;;;23.20;9.70;;;;;;;26.48;57.43;100199.59;107285;1254;111754;-67
2023/08/30 06:09:40;;;;;;;16.90;8.40;;;;;;;26.62;57.42;100199.77;107366;1254;110653;-66
2023/08/30 06:12:08;;;;;;;18.90;8.30;;;;;;;26.75;57.31;100193.14;107363;1254;107840;-66
2023/08/30 06:14:36;;;;;;;19.90;8.20;;;;;;;26.89;57.13;100190.55;107361;1254;98760;-66
2023/08/30 06:17:04;;;;;;;18.90;7.90;;;;;;;27.02;56.78;100193.17;107375;1254;97842;-67
2023/08/30 06:19:33;;;;;;;17.10;7.90;;;;;;;27.10;56.29;100192.36;107373;1254;112268;-65
2023/08/30 06:22:01;;;;;;;15.40;7.90;;;;;;;27.19;56.20;100194.88;107368;1254;108949;-66
2023/08/30 06:24:30;;;;;;;26.20;7.40;;;;;;;27.28;56.20;100189.89;107386;1254;108474;-65
2023/08/30 06:26:59;;;;;;;17.70;7.20;;;;;;;27.36;56.02;100182.35;107342;1257;97934;-66
2023/08/30 06:29:28;;;;;;;16.10;7.40;;;;;;;27.43;55.93;100178.82;107381;1257;98356;-66
2023/08/30 06:31:56;;;;;;;20.50;7.50;;;;;;;27.51;55.75;100180.40;107405;1254;112187;-66
2023/08/30 06:34:24;;;;;;;14.50;6.80;;;;;;;27.60;55.50;100177.48;107397;1254;108597;-65
2023/08/30 06:36:53;;;;;;;20.60;7.70;;;;;;;27.68;55.46;100178.46;107245;1254;108559;-64
2023/08/30 06:39:21;;;;;;;20.70;7.00;;;;;;;27.76;55.16;100177.20;107332;1256;97822;-65
2023/08/30 06:41:49;;;;;;;21.10;7.50;;;;;;;27.84;55.18;100178.25;107380;1253;97941;-64
2023/08/30 06:44:21;;;;;;;28.30;7.50;;;;;;;27.90;54.81;100172.21;107445;1254;111524;-67
2023/08/30 06:46:50;;;;;;;18.40;7.40;;;;;;;27.96;54.88;100177.88;107329;1254;109416;-66
2023/08/30 06:49:18;;;;;;;17.10;7.30;;;;;;;28.04;54.85;100180.26;107336;1254;108998;-66
2023/08/30 06:51:47;;;;;;;24.70;5.90;;;;;;;28.11;54.43;100183.53;107383;1254;97821;-66
2023/08/30 06:54:15;;;;;;;16.40;6.20;;;;;;;28.20;53.62;100176.77;107352;1254;97759;-67
2023/08/30 06:56:57;;;;;;;17.00;5.90;;;;;;;28.29;53.03;100176.48;107383;1254;111719;-65
2023/08/30 06:59:26;;;;;;;16.90;5.90;;;;;;;28.38;52.72;100180.02;107379;1256;109708;-67
2023/08/30 07:01:54;;;;;;;21.80;5.50;;;;;;;28.46;52.25;100181.88;107372;1254;107226;-66
2023/08/30 07:04:23;;;;;;;14.10;5.40;;;;;;;28.49;51.98;100180.89;107352;1257;97937;-68
2023/08/30 07:06:51;;;;;;;19.60;5.40;;;;;;;28.53;51.58;100183.95;107355;1254;97895;-67
2023/08/30 07:09:20;;;;;;;16.90;6.10;;;;;;;28.56;51.71;100180.58;107381;1254;110288;-66
2023/08/30 07:11:50;;;;;;;12.20;5.60;;;;;;;28.64;51.53;100186.04;107373;1254;109738;-67
2023/08/30 07:14:20;;;;;;;14.10;5.40;;;;;;;28.73;51.19;100177.08;107407;1254;108448;-66
2023/08/30 07:16:51;;;;;;;16.40;5.70;;;;;;;28.84;51.41;100174.78;107359;1254;97870;-63
2023/08/30 07:19:19;;;;;;;20.60;5.30;;;;;;;29.00;51.16;100173.75;107348;1254;97717;-66
2023/08/30 07:21:48;;;;;;;18.20;5.90;;;;;;;29.16;50.64;100173.48;107351;1257;112014;-64
2023/08/30 07:24:16;;;;;;;19.80;5.60;;;;;;;29.34;50.15;100174.80;107413;1257;110019;-66
2023/08/30 07:26:44;;;;;;;16.40;5.70;;;;;;;29.47;49.92;100175.31;107403;1254;108113;-66
2023/08/30 07:29:13;;;;;;;16.40;5.50;;;;;;;29.52;49.58;100170.09;107368;1254;97941;-67
2023/08/30 07:31:41;;;;;;;13.20;5.00;;;;;;;29.55;49.71;100165.77;107325;1257;97915;-66
2023/08/30 07:34:09;;;;;;;13.00;5.40;;;;;;;29.61;48.91;100171.20;107296;1257;111947;-65
2023/08/30 07:36:38;;;;;;;7.00;4.70;;;;;;;29.61;48.63;100173.30;107388;1254;109947;-66
2023/08/30 07:39:15;;;;;;;13.10;5.20;;;;;;;29.57;47.91;100169.38;107387;1257;107028;-67
2023/08/30 07:41:43;;;;;;;9.90;4.40;;;;;;;29.54;46.53;100167.10;107320;1257;97828;-67
2023/08/30 07:44:11;;;;;;;10.60;4.30;;;;;;;29.47;46.15;100165.78;107315;1254;97847;-66
2023/08/30 07:46:39;;;;;;;12.00;4.90;;;;;;;29.41;45.65;100165.45;107329;1254;111162;-66
2023/08/30 07:49:08;;;;;;;16.50;5.10;;;;;;;29.36;45.78;100164.61;107341;1254;109167;-64
2023/08/30 07:51:36;;;;;;;23.10;5.60;;;;;;;29.32;45.97;100162.11;107358;1257;108267;-66
2023/08/30 07:54:05;;;;;;;14.70;4.60;;;;;;;29.28;46.51;100164.80;107195;1254;97917;-66
2023/08/30 07:56:33;;;;;;;13.30;4.60;;;;;;;29.25;46.83;100162.31;107366;1253;97850;-66
2023/08/30 07:59:03;;;;;;;13.40;4.50;;;;;;;29.27;47.41;100166.91;107312;1257;112151;-66
2023/08/30 08:01:31;;;;;;;12.50;5.30;;;;;;;29.24;48.05;100165.14;107328;1257;109889;-66
2023/08/30 08:04:00;;;;;;;12.70;5.90;;;;;;;29.21;48.67;100163.52;107246;1256;106776;-66
2023/08/30 08:06:35;;;;;;;12.70;6.10;;;;;;;29.14;51.67;100169.39;107329;1257;97857;-67
2023/08/30 08:09:05;;;;;;;14.40;6.10;;;;;;;28.98;52.82;100161.23;107293;1259;98492;-68
2023/08/30 08:11:34;;;;;;;16.00;6.80;;;;;;;28.87;52.90;100160.88;107257;1256;110525;-67
2023/08/30 08:14:03;;;;;;;10.90;6.40;;;;;;;28.89;53.40;100153.36;107340;1255;109152;-67
2023/08/30 08:16:31;;;;;;;10.50;6.20;;;;;;;28.94;53.74;100146.99;107344;1257;108648;-69
2023/08/30 08:19:01;;;;;;;12.90;6.00;;;;;;;28.88;53.75;100138.80;107328;1257;97615;-66
2023/08/30 08:21:29;;;;;;;10.50;6.40;;;;;;;28.79;54.22;100129.26;107224;1257;97749;-67
2023/08/30 08:23:57;;;;;;;11.60;6.70;;;;;;;28.70;54.56;100126.34;107375;1256;111698;-67
2023/08/30 08:26:26;;;;;;;11.80;6.30;;;;;;;28.80;54.31;100134.63;107368;1256;111007;-68
2023/08/30 08:28:55;;;;;;;17.20;6.10;;;;;;;29.00;54.11;100141.46;107324;1257;107554;-67
2023/08/30 08:31:24;;;;;;;15.40;6.30;;;;;;;29.15;53.70;100138.94;107325;1257;97944;-64
2023/08/30 08:34:10;;;;;;;13.50;5.70;;;;;;;29.36;53.48;100141.40;107319;1256;97825;-67
2023/08/30 08:36:41;;;;;;;14.00;6.50;;;;;;;29.64;52.66;100139.38;107332;1256;111906;-67
2023/08/30 08:39:10;;;;;;;11.10;5.90;;;;;;;29.78;51.81;100126.10;107376;1257;109730;-67
2023/08/30 08:41:44;;;;;;;15.30;6.20;;;;;;;29.77;51.46;100115.41;107286;1257;108305;-67
2023/08/30 08:44:13;;;;;;;12.60;6.20;;;;;;;29.86;51.01;100114.55;107304;1257;97925;-67
2023/08/30 08:46:41;;;;;;;18.40;6.20;;;;;;;30.01;51.05;100127.01;107371;1256;97714;-68
2023/08/30 08:49:17;;;;;;;11.70;5.60;;;;;;;30.31;50.63;100135.10;107144;1257;110491;-66
2023/08/30 08:51:45;;;;;;;11.30;5.30;;;;;;;30.72;48.14;100132.25;107316;1257;109939;-65
2023/08/30 08:54:13;;;;;;;20.70;4.90;;;;;;;31.18;44.05;100133.44;107076;1257;107508;-65
2023/08/30 08:56:43;;;;;;;11.80;4.60;;;;;;;31.44;42.90;100136.72;107326;1254;97989;-63
2023/08/30 08:59:12;;;;;;;7.60;4.60;;;;;;;31.49;41.98;100136.19;107360;1254;98372;-64
2023/08/30 09:01:40;;;;;;;9.60;4.90;;;;;;;31.42;42.11;100141.48;107343;1254;112148;-66
2023/08/30 09:04:10;;;;;;;12.70;4.30;;;;;;;31.40;41.34;100138.27;107437;1254;108589;-66
2023/08/30 09:06:40;;;;;;;21.50;4.50;;;;;;;31.36;41.27;100130.69;107410;1254;109489;-66
2023/08/30 09:09:10;;;;;;;13.60;3.80;;;;;;;31.31;41.04;100138.91;107382;1257;97818;-67
2023/08/30 09:11:38;;;;;;;10.70;3.80;;;;;;;31.24;39.68;100146.96;107416;1253;99520;-67
2023/08/30 09:14:19;;;;;;;12.20;4.70;;;;;;;31.22;39.57;100140.26;107401;1254;112432;-68
2023/08/30 09:16:58;;;;;;;13.70;4.70;;;;;;;31.24;39.65;100130.69;107367;1257;108852;-66
2023/08/30 09:19:27;;;;;;;8.80;5.30;;;;;;;31.27;42.96;100141.05;107379;1254;108508;-68
2023/08/30 09:21:56;;;;;;;13.40;5.50;;;;;;;31.23;44.89;100133.30;107347;1256;97838;-66
2023/08/30 09:24:25;;;;;;;12.00;5.60;;;;;;;31.19;45.10;100137.61;107322;1254;97843;-67
2023/08/30 09:26:54;;;;;;;18.70;5.90;;;;;;;30.98;46.22;100146.41;107297;1256;111439;-66
2023/08/30 09:29:23;;;;;;;10.90;5.20;;;;;;;30.71;46.78;100150.64;107386;1257;109869;-69
2023/08/30 09:31:53;;;;;;;16.30;5.90;;;;;;;30.39;48.26;100156.98;107386;1254;107962;-67
2023/08/30 09:34:26;;;;;;;20.00;6.30;;;;;;;30.03;49.39;100157.62;107353;1256;97762;-66
2023/08/30 09:36:55;;;;;;;48.50;6.50;;;;;;;29.55;51.36;100193.90;107371;1254;97851;-67
2023/08/30 09:39:24;;;;;;;39.50;3.90;;;;;;;28.26;46.47;100254.06;107411;1254;112450;-67
2023/08/30 09:41:54;;;;;;;23.80;3.10;;;;;;;26.71;46.28;100240.45;107341;1254;109288;-66
2023/08/30 09:44:24;;;;;;;51.30;4.10;;;;;;;25.41;47.66;100251.14;107402;1254;108322;-66
2023/08/30 09:46:55;;;;;;;21.90;4.10;;;;;;;24.32;50.13;100266.65;107341;1258;97841;-66
2023/08/30 09:49:26;;;;;;;24.90;2.30;;;;;;;23.47;52.11;100245.23;107434;1254;98396;-66
2023/08/30 09:51:55;;;;;;;14.70;2.30;;;;;;;22.83;53.11;100240.07;107473;1256;111072;-67
2023/08/30 09:54:25;;;;;;;11.50;1.50;;;;;;;22.42;54.05;100238.52;107450;1254;111493;-66
2023/08/30 09:56:59;;;;;;;18.60;1.80;;;;;;;22.05;54.79;100260.92;106866;1254;672170;-67
2023/08/30 09:59:28;;;;;;;10.40;1.60;;;;;;;21.86;55.42;100298.37;107389;1254;98502;-67
2023/08/30 10:01:57;;;;;;;15.60;2.30;;;;;;;21.80;57.64;100318.55;107444;1254;99549;-66
2023/08/30 10:04:27;;;;;;;12.70;2.30;;;;;;;21.39;62.28;100365.52;107390;1254;112134;-64
2023/08/30 10:06:59;;;;;;;11.60;2.00;;;;;;;20.91;67.58;100369.38;107376;1254;108668;-65
2023/08/30 10:09:30;;;;;;;12.20;2.20;;;;;;;20.29;69.77;100361.46;107363;1257;106614;-65
2023/08/30 10:12:01;;;;;;;5.50;2.40;;;;;;;19.81;71.99;100367.00;107358;1254;97849;-66
2023/08/30 10:14:29;;;;;;;11.60;2.50;;;;;;;19.51;74.19;100363.63;107394;1254;97719;-65
2023/08/30 10:17:03;;;;;;;7.60;2.20;;;;;;;19.42;75.14;100373.80;107362;1254;111327;-65
2023/08/30 10:19:32;;;;;;;8.30;2.30;;;;;;;19.48;75.65;100375.46;107395;1254;110077;-65
2023/08/30 10:22:08;;;;;;;8.90;2.60;;;;;;;19.57;75.78;100325.83;107400;1253;107529;-66
2023/08/30 10:24:41;;;;;;;8.80;2.70;;;;;;;19.69;75.73;100328.91;107214;1257;97891;-66
2023/08/30 10:27:32;;;;;;;10.80;2.60;;;;;;;19.75;75.88;100331.95;107439;1254;97732;-66
2023/08/30 10:30:09;;;;;;;5.20;2.30;;;;;;;19.77;77.08;100340.40;107396;1254;111949;-65
2023/08/30 10:32:42;;;;;;;7.60;2.40;;;;;;;19.67;76.55;100327.70;107332;1257;109527;-66
2023/08/30 10:35:13;;;;;;;10.00;2.70;;;;;;;19.55;77.45;100349.05;107315;1254;107127;-65
2023/08/30 10:37:42;;;;;;;8.60;3.20;;;;;;;19.42;78.60;100362.69;107336;1257;97898;-66
2023/08/30 10:40:11;;;;;;;22.90;3.90;;;;;;;19.26;78.46;100384.90;107374;1254;97748;-65
2023/08/30 10:42:39;;;;;;;17.50;3.30;;;;;;;19.17;79.69;100412.13;107321;1255;111596;-65
2023/08/30 10:45:08;;;;;;;29.30;4.70;;;;;;;18.94;84.01;100437.65;107345;1256;109719;-67
2023/08/30 10:47:42;;;;;;;13.20;3.40;;;;;;;18.85;85.04;100450.66;107344;1254;108651;-67
2023/08/30 10:50:11;;;;;;;10.90;3.70;;;;;;;18.89;84.82;100508.83;107335;1253;97953;-67
2023/08/30 10:52:40;;;;;;;11.20;3.20;;;;;;;18.87;86.37;100557.59;107406;1254;98482;-66
2023/08/30 10:55:11;;;;;;;14.20;3.60;;;;;;;18.76;86.93;100568.55;107375;1254;111295;-67
2023/08/30 10:57:44;;;;;;;12.40;3.90;;;;;;;18.70;87.46;100555.05;107398;1254;110035;-67
2023/08/30 11:00:16;;;;;;;;;;;;;;;18.65;88.12;100537.34;107356;1256;107270;-68
2023/08/30 11:02:46;;;;;;;9.30;3.20;;;;;;;18.60;88.49;100489.41;107308;1254;97844;-67
2023/08/30 11:05:33;;;;;;;10.70;4.10;;;;;;;18.61;89.82;100432.23;107313;1257;97748;-68
2023/08/30 11:08:01;;;;;;;13.30;4.20;;;;;;;18.51;92.57;100427.80;107303;1256;111503;-66
2023/08/30 11:10:30;;;;;;;18.40;4.30;;;;;;;18.38;94.62;100435.03;107353;1254;108780;-67
2023/08/30 11:12:58;;;;;;;19.30;5.40;;;;;;;18.47;94.80;100445.50;107359;1254;107592;-66
2023/08/30 11:15:26;;;;;;;25.80;4.60;;;;;;;18.64;95.03;100465.34;107359;1257;97840;-67
2023/08/30 11:18:03;;;;;;;13.30;4.50;;;;;;;18.69;94.37;100496.65;107362;1256;97736;-68